createdAt,value
2022-08-31T00:08:14.389Z,80.03
2022-08-31T00:11:55.929Z,80.36
2022-08-31T00:15:13.806Z,80.13
2022-08-31T00:44:56.156Z,79.65
2022-08-31T00:48:36.490Z,79.81
2022-08-31T00:52:33.202Z,79.86
2022-08-31T00:56:23.158Z,79.75
2022-08-31T00:59:51.973Z,79.67
2022-08-31T01:03:45.106Z,79.56
2022-08-31T01:07:27.420Z,79.56
2022-08-31T01:52:14.103Z,78.77
2022-08-31T01:56:04.912Z,78.60
2022-08-31T01:59:57.417Z,78.99
2022-08-31T02:23:30.665Z,78.73
2022-08-31T02:27:23.329Z,79.52
2022-08-31T02:31:18.608Z,79.41
2022-08-31T02:34:54.147Z,79.27
2022-08-31T02:38:47.016Z,79.22
2022-08-31T03:01:28.511Z,78.93
2022-08-31T03:05:11.924Z,78.82
2022-08-31T03:09:03.619Z,78.89
2022-08-31T03:12:56.162Z,78.86
2022-08-31T03:16:39.689Z,78.42
2022-08-31T03:35:49.454Z,78.32
2022-08-31T03:39:40.770Z,78.12
2022-08-31T03:43:31.966Z,78.20
2022-08-31T03:47:17.903Z,78.08
2022-08-31T04:14:01.750Z,78.44
2022-08-31T04:18:02.567Z,78.46
2022-08-31T04:37:51.304Z,78.73
2022-08-31T04:41:40.486Z,78.81
2022-08-31T04:45:26.353Z,78.98
2022-08-31T05:08:38.698Z,78.54
2022-08-31T05:12:30.023Z,78.54
2022-08-31T05:35:07.428Z,78.35
2022-08-31T05:39:01.058Z,78.14
2022-08-31T05:42:37.382Z,78.45
2022-08-31T05:46:29.011Z,79.09
2022-08-31T06:09:23.061Z,78.90
2022-08-31T06:12:32.858Z,78.44
2022-08-31T06:15:58.454Z,78.22
2022-08-31T06:19:07.777Z,77.97
2022-08-31T06:22:08.312Z,78.29
2022-08-31T06:25:59.776Z,78.56
2022-08-31T06:29:53.569Z,78.77
2022-08-31T06:33:05.101Z,78.51
2022-08-31T06:36:35.144Z,78.63
2022-08-31T06:40:30.444Z,78.08
2022-08-31T06:44:06.209Z,77.83
2022-08-31T06:54:33.077Z,77.37
2022-08-31T07:05:30.459Z,76.49
2022-08-31T07:08:43.516Z,76.58
2022-08-31T07:19:07.936Z,74.61
2022-08-31T07:21:59.152Z,74.01
2022-08-31T07:28:44.271Z,72.74
2022-08-31T07:31:59.638Z,72.74
2022-08-31T07:35:00.947Z,72.56
2022-08-31T07:38:02.537Z,72.02
2022-08-31T07:41:14.411Z,71.98
2022-08-31T07:44:21.196Z,71.86
2022-08-31T07:47:12.079Z,70.91
2022-08-31T07:50:16.549Z,71.00
2022-08-31T07:53:17.094Z,70.64
2022-08-31T07:56:56.945Z,71.11
2022-08-31T08:00:05.559Z,70.04
2022-08-31T08:02:52.978Z,69.47
2022-08-31T08:05:45.125Z,69.14
2022-08-31T08:09:12.690Z,68.77
2022-08-31T08:12:22.515Z,68.51
2022-08-31T08:15:36.453Z,68.20
2022-08-31T08:19:13.122Z,67.77
2022-08-31T08:21:55.603Z,68.10
2022-08-31T08:24:38.640Z,67.77
2022-08-31T08:28:39.725Z,68.05
2022-08-31T08:31:29.380Z,67.86
2022-08-31T08:34:19.560Z,67.42
2022-08-31T08:37:11.547Z,67.68
2022-08-31T08:40:05.044Z,67.16
2022-08-31T08:43:00.348Z,66.23
2022-08-31T08:45:47.834Z,67.33
2022-08-31T08:48:29.737Z,67.73
2022-08-31T08:51:28.557Z,67.18
2022-08-31T08:54:23.822Z,67.86
2022-08-31T08:57:20.322Z,65.00
2022-08-31T09:00:06.938Z,65.34
2022-08-31T09:02:48.672Z,63.95
2022-08-31T09:05:43.834Z,62.91
2022-08-31T09:09:09.047Z,62.67
2022-08-31T09:12:05.614Z,61.18
2022-08-31T09:14:51.602Z,60.61
2022-08-31T09:17:35.868Z,58.73
2022-08-31T09:20:28.741Z,56.74
2022-08-31T09:23:01.839Z,57.15
2022-08-31T09:25:52.707Z,54.61
2022-08-31T09:29:17.497Z,55.58
2022-08-31T09:31:49.899Z,55.42
2022-08-31T09:34:48.597Z,54.13
2022-08-31T09:38:10.621Z,53.28
2022-08-31T09:40:54.048Z,53.90
2022-08-31T09:43:45.297Z,53.04
2022-08-31T09:46:36.520Z,52.15
2022-08-31T09:49:39.606Z,52.66
2022-08-31T09:52:43.009Z,52.75
2022-08-31T09:55:25.682Z,51.47
2022-08-31T09:58:27.220Z,50.06
2022-08-31T10:01:36.374Z,49.33
2022-08-31T10:04:38.529Z,49.74
2022-08-31T10:07:49.409Z,50.28
2022-08-31T10:10:36.878Z,50.27
2022-08-31T10:13:58.558Z,50.93
2022-08-31T10:17:00.827Z,50.66
2022-08-31T10:20:10.619Z,50.78
2022-08-31T10:22:57.314Z,51.08
2022-08-31T10:25:43.493Z,51.41
2022-08-31T10:28:52.160Z,52.51
2022-08-31T10:31:43.617Z,48.85
2022-08-31T10:34:54.074Z,49.11
2022-08-31T10:37:53.953Z,48.57
2022-08-31T10:41:04.164Z,47.77
2022-08-31T10:43:46.359Z,47.03
2022-08-31T10:46:17.270Z,44.34
2022-08-31T10:48:58.305Z,44.22
2022-08-31T10:51:38.769Z,44.34
2022-08-31T10:54:27.956Z,43.48
2022-08-31T10:57:22.355Z,43.48
2022-08-31T11:00:38.368Z,42.22
2022-08-31T11:03:23.050Z,41.07
2022-08-31T11:06:09.722Z,41.17
2022-08-31T11:09:04.505Z,40.70
2022-08-31T11:11:46.152Z,41.36
2022-08-31T11:14:33.737Z,40.56
2022-08-31T11:17:29.307Z,41.08
2022-08-31T11:20:22.642Z,39.61
2022-08-31T11:23:06.056Z,39.50
2022-08-31T11:26:19.279Z,37.19
2022-08-31T11:28:56.435Z,36.68
2022-08-31T11:31:30.767Z,36.08
2022-08-31T11:34:17.403Z,34.33
2022-08-31T11:36:51.552Z,34.54
2022-08-31T11:39:37.216Z,34.06
2022-08-31T11:42:14.464Z,34.09
2022-08-31T11:44:45.000Z,34.96
2022-08-31T11:47:30.525Z,35.51
2022-08-31T11:50:06.758Z,37.78
2022-08-31T11:52:41.410Z,40.23
2022-08-31T11:55:24.513Z,40.77
2022-08-31T11:58:20.089Z,42.07
2022-08-31T12:01:06.951Z,43.32
2022-08-31T12:03:56.123Z,43.64
2022-08-31T12:06:30.035Z,44.71
2022-08-31T12:09:02.936Z,45.67
2022-08-31T12:11:52.317Z,46.67
2022-08-31T12:14:35.794Z,47.70
2022-08-31T12:17:47.188Z,48.42
2022-08-31T12:21:25.116Z,47.27
2022-08-31T12:24:18.902Z,47.33
2022-08-31T12:27:18.245Z,46.21
2022-08-31T12:30:14.277Z,45.15
2022-08-31T12:32:49.996Z,43.96
2022-08-31T12:35:25.594Z,44.79
2022-08-31T12:38:23.010Z,43.87
2022-08-31T12:41:10.356Z,46.06
2022-08-31T12:43:44.778Z,44.92
2022-08-31T12:46:24.474Z,44.34
2022-08-31T12:49:33.787Z,41.42
2022-08-31T12:52:04.563Z,41.19
2022-08-31T12:55:01.181Z,39.54
2022-08-31T12:57:46.479Z,37.34
2022-08-31T13:00:31.082Z,36.84
2022-08-31T13:03:21.992Z,36.38
2022-08-31T13:06:13.933Z,36.49
2022-08-31T13:08:46.283Z,36.59
2022-08-31T13:11:51.424Z,37.71
2022-08-31T13:14:25.464Z,37.86
2022-08-31T13:17:12.504Z,37.84
2022-08-31T13:19:51.049Z,38.14
2022-08-31T13:22:36.099Z,38.54
2022-08-31T13:25:51.046Z,38.38
2022-08-31T13:28:29.316Z,37.26
2022-08-31T13:31:09.543Z,37.39
2022-08-31T13:33:42.977Z,37.81
2022-08-31T13:36:38.526Z,38.01
2022-08-31T13:39:43.994Z,37.85
2022-08-31T13:42:42.011Z,38.14
2022-08-31T13:45:32.626Z,38.89
2022-08-31T13:48:12.923Z,39.10
2022-08-31T13:51:16.832Z,38.20
2022-08-31T13:54:05.778Z,37.70
2022-08-31T13:56:58.965Z,37.40
2022-08-31T14:00:19.943Z,37.44
2022-08-31T14:02:54.366Z,36.29
2022-08-31T14:05:41.465Z,38.08
2022-08-31T14:08:28.077Z,38.02
2022-08-31T14:11:29.902Z,37.31
2022-08-31T14:14:36.543Z,38.13
2022-08-31T14:17:06.894Z,37.86
2022-08-31T14:19:55.975Z,37.39
2022-08-31T14:22:57.466Z,37.69
2022-08-31T14:25:38.397Z,38.35
2022-08-31T14:28:33.844Z,37.60
2022-08-31T14:31:13.162Z,37.52
2022-08-31T14:33:44.354Z,39.17
2022-08-31T14:36:17.681Z,39.27
2022-08-31T14:38:59.556Z,39.56
2022-08-31T14:41:53.412Z,41.60
2022-08-31T14:44:26.227Z,41.49
2022-08-31T14:46:56.798Z,41.21
2022-08-31T14:49:27.613Z,38.68
2022-08-31T14:52:07.043Z,37.57
2022-08-31T14:54:38.022Z,37.03
2022-08-31T14:57:18.758Z,37.01
2022-08-31T15:00:00.159Z,36.36
2022-08-31T15:02:35.878Z,36.69
2022-08-31T15:05:09.596Z,37.62
2022-08-31T15:07:42.940Z,37.66
2022-08-31T15:10:13.357Z,37.63
2022-08-31T15:12:43.512Z,38.41
2022-08-31T15:15:19.365Z,38.25
2022-08-31T15:17:51.950Z,38.92
2022-08-31T15:20:24.098Z,38.80
2022-08-31T15:22:54.270Z,38.59
2022-08-31T15:25:27.164Z,37.92
2022-08-31T15:27:58.426Z,37.98
2022-08-31T15:30:28.910Z,37.81
2022-08-31T15:32:59.967Z,37.14
2022-08-31T15:35:32.167Z,37.30
2022-08-31T15:38:07.109Z,37.52
2022-08-31T15:40:40.286Z,37.90
2022-08-31T15:43:12.821Z,37.66
2022-08-31T15:45:41.868Z,37.83
2022-08-31T15:48:37.023Z,37.36
2022-08-31T15:51:28.564Z,38.09
2022-08-31T15:54:21.114Z,37.73
2022-08-31T15:56:53.553Z,38.00
2022-08-31T15:59:23.923Z,38.39
2022-08-31T16:01:54.052Z,40.11
2022-08-31T16:04:24.493Z,41.20
2022-08-31T16:06:55.848Z,41.97
2022-08-31T16:09:26.188Z,42.78
2022-08-31T16:11:55.114Z,44.18
2022-08-31T16:14:41.679Z,46.27
2022-08-31T16:17:19.351Z,48.36
2022-08-31T16:19:49.421Z,49.42
2022-08-31T16:22:21.266Z,49.65
2022-08-31T16:24:53.960Z,50.17
2022-08-31T16:27:26.910Z,52.08
2022-08-31T16:30:01.264Z,53.18
2022-08-31T16:32:45.739Z,54.02
2022-08-31T16:35:45.215Z,54.52
2022-08-31T16:38:18.390Z,56.14
2022-08-31T16:41:19.292Z,56.86
2022-08-31T16:44:20.530Z,57.60
2022-08-31T16:47:02.313Z,57.89
2022-08-31T16:49:46.151Z,57.77
2022-08-31T16:52:46.355Z,58.75
2022-08-31T16:55:31.982Z,58.96
2022-08-31T16:58:09.123Z,59.01
2022-08-31T17:01:13.102Z,59.04
2022-08-31T17:03:59.275Z,58.87
2022-08-31T17:07:14.777Z,59.35
2022-08-31T17:10:07.490Z,59.21
2022-08-31T17:12:55.271Z,59.10
2022-08-31T17:15:45.641Z,60.31
2022-08-31T17:18:37.530Z,60.51
2022-08-31T17:22:13.910Z,60.33
2022-08-31T17:25:08.364Z,60.71
2022-08-31T17:28:07.658Z,60.99
2022-08-31T17:31:13.206Z,61.91
2022-08-31T17:33:49.607Z,63.07
2022-08-31T17:36:44.436Z,62.81
2022-08-31T17:39:53.503Z,62.79
2022-08-31T17:42:50.673Z,62.55
2022-08-31T17:46:07.584Z,63.17
2022-08-31T17:49:28.214Z,63.12
2022-08-31T17:52:40.046Z,63.29
2022-08-31T17:55:32.827Z,63.52
2022-08-31T17:59:33.234Z,63.62
2022-08-31T18:03:24.861Z,64.01
2022-08-31T18:06:59.677Z,63.95
2022-08-31T18:10:54.260Z,63.96
2022-08-31T18:14:19.767Z,64.01
2022-08-31T18:17:46.623Z,64.14
2022-08-31T18:40:23.618Z,64.33
2022-08-31T18:44:13.196Z,64.95
2022-08-31T18:51:36.961Z,64.98
2022-08-31T19:14:07.325Z,65.01
2022-08-31T19:18:01.055Z,65.03
2022-08-31T19:33:11.233Z,65.39
2022-08-31T19:36:55.377Z,65.82
2022-08-31T19:40:05.686Z,65.93
2022-08-31T19:43:54.878Z,66.11
2022-08-31T19:47:29.908Z,66.34
2022-08-31T19:50:15.839Z,66.77
2022-08-31T19:53:50.780Z,67.24
2022-08-31T19:56:58.397Z,66.83
2022-08-31T20:00:30.653Z,66.66
2022-08-31T20:04:01.829Z,66.43
2022-08-31T20:40:03.533Z,68.05
2022-08-31T20:43:21.841Z,68.14
2022-08-31T20:46:58.417Z,67.94
2022-08-31T20:50:26.665Z,68.10
2022-08-31T20:54:02.910Z,68.06
2022-08-31T20:57:18.149Z,68.00
2022-08-31T21:00:42.190Z,68.37
2022-08-31T21:04:06.474Z,68.53
2022-08-31T21:07:34.000Z,68.61
2022-08-31T21:11:32.693Z,68.76
2022-08-31T21:14:37.956Z,68.81
2022-08-31T21:58:46.142Z,69.39
2022-08-31T22:02:37.704Z,69.27
2022-08-31T22:06:31.173Z,68.94
2022-08-31T22:21:49.825Z,69.82
2022-08-31T22:25:22.867Z,70.22
2022-08-31T22:29:06.316Z,70.33
2022-08-31T22:44:37.340Z,70.84
2022-08-31T22:48:29.082Z,71.23
2022-08-31T22:52:21.066Z,71.35
2022-08-31T22:56:12.449Z,71.53
2022-08-31T23:15:47.496Z,71.06
2022-08-31T23:19:44.839Z,71.10
2022-08-31T23:23:36.624Z,71.00
2022-08-31T23:27:29.566Z,70.79
2022-08-31T23:46:45.386Z,70.97
2022-08-31T23:50:23.315Z,70.96
2022-08-31T23:54:17.728Z,71.00
2022-08-31T23:58:03.475Z,70.69
